Terminal Aerodrome Forecast
Issued by NWS

Home | Current Version | Previous Version | Text Only | Print | Product List | Glossary On
Versions: 1 2 3 4 5 6 7 8 9 10 11 12 13 14 15 16 17 18 19
796
FTUS43 KDLH 260905 AAA
TAFBRD
TAF AMD
KBRD 260905Z 2609/2706 07003KT P6SM OVC019
     FM261100 06005KT 5SM BR BKN008 OVC013
     FM261700 02005KT 6SM BR BKN015 OVC025
     FM262000 36006KT P6SM SCT015 OVC025
     FM270200 01005KT P6SM SCT025 BKN050=

USA.gov is the U.S. government's official web portal to all federal, state and local government web resources and services.